Time;durP1;ratioP1;P1;durP2;ratioP2;P2;SDS_P1;SDS_P2;PMS_P1;PMS_P2;Temp;Humidity;BMP_temperature;BMP_pressure;BME280_temperature;BME280_humidity;BME280_pressure;Samples;Min_cycle;Max_cycle;Signal;HPM_P1;HPM_P2
2022/07/26 00:00:15;;;;;;;6.53;2.10;;;22.30;99.90;;;;;;5086312;28;20398;-52
2022/07/26 00:02:41;;;;;;;7.53;2.33;;;22.40;99.90;;;;;;5070438;28;20749;-54
2022/07/26 00:05:07;;;;;;;8.43;2.35;;;22.40;99.90;;;;;;5089271;28;20362;-53
2022/07/26 00:07:33;;;;;;;6.55;2.60;;;22.40;99.90;;;;;;5077196;28;20401;-53
2022/07/26 00:09:58;;;;;;;6.55;2.40;;;22.50;99.90;;;;;;5068777;28;20384;-52
2022/07/26 00:12:24;;;;;;;8.57;2.42;;;22.50;99.90;;;;;;5079169;28;20413;-53
2022/07/26 00:14:50;;;;;;;8.30;2.40;;;22.60;99.90;;;;;;5086915;28;20756;-54
2022/07/26 00:17:15;;;;;;;7.77;2.40;;;22.70;99.90;;;;;;5070722;28;20400;-53
2022/07/26 00:19:41;;;;;;;10.07;2.70;;;22.70;99.90;;;;;;5079710;28;20390;-54
2022/07/26 00:24:51;;;;;;;7.25;2.40;;;22.90;99.90;;;;;;5091802;28;20455;-53
2022/07/26 00:27:17;;;;;;;7.80;2.20;;;22.90;99.90;;;;;;5076153;28;20482;-54
2022/07/26 00:29:44;;;;;;;10.57;2.30;;;22.70;1.00;;;;;;5082131;28;20456;-53
2022/07/26 00:32:10;;;;;;;8.10;2.60;;;23.10;99.90;;;;;;5072424;28;20874;-54
2022/07/26 00:34:35;;;;;;;6.20;2.30;;;23.20;99.90;;;;;;5088755;28;20420;-54
2022/07/26 00:37:01;;;;;;;8.23;2.90;;;23.20;99.90;;;;;;5084532;28;20384;-54
2022/07/26 00:39:27;;;;;;;7.85;2.42;;;23.30;99.90;;;;;;5072949;28;20733;-62
2022/07/26 00:41:53;;;;;;;6.53;2.00;;;23.40;99.90;;;;;;5077670;28;20463;-55
2022/07/26 00:44:19;;;;;;;7.38;2.00;;;23.40;99.90;;;;;;5085752;28;20860;-53
2022/07/26 00:46:45;;;;;;;7.90;2.30;;;23.20;99.90;;;;;;5070807;28;20435;-53
2022/07/26 00:49:11;;;;;;;6.47;2.10;;;23.20;99.90;;;;;;5089126;28;20400;-56
2022/07/26 00:51:37;;;;;;;7.28;2.15;;;23.30;99.90;;;;;;5090704;28;20421;-56
2022/07/26 00:54:04;;;;;;;7.37;2.03;;;23.40;1.00;;;;;;5092303;28;20393;-55
2022/07/26 00:56:31;;;;;;;7.60;1.80;;;23.20;99.90;;;;;;5074399;28;20469;-59
2022/07/26 00:58:58;;;;;;;8.70;2.15;;;22.90;1.00;;;;;;5072332;28;20396;-52
2022/07/26 01:01:24;;;;;;;7.90;2.20;;;22.40;99.90;;;;;;5082075;28;20475;-52
2022/07/26 01:03:52;;;;;;;9.07;3.20;;;22.10;1.00;;;;;;5089895;28;20688;-52
2022/07/26 01:06:17;;;;;;;8.35;2.85;;;21.70;99.90;;;;;;5081838;28;20469;-52
2022/07/26 01:08:43;;;;;;;9.10;2.95;;;21.60;99.90;;;;;;5091147;28;20469;-52
2022/07/26 01:11:09;;;;;;;7.33;3.10;;;21.50;92.70;;;;;;5091237;28;20763;-52
2022/07/26 01:13:34;;;;;;;9.00;2.90;;;21.50;1.00;;;;;;5087228;28;20473;-53
2022/07/26 01:16:00;;;;;;;7.50;3.20;;;21.40;99.90;;;;;;5084767;28;20843;-55
2022/07/26 01:18:26;;;;;;;8.18;3.20;;;21.10;1.00;;;;;;5082904;28;20398;-55
2022/07/26 01:20:53;;;;;;;7.10;2.80;;;21.00;1.00;;;;;;5081364;28;20390;-55
2022/07/26 01:23:19;;;;;;;8.43;3.22;;;20.80;1.00;;;;;;5080189;28;20763;-53
2022/07/26 01:25:45;;;;;;;10.05;3.50;;;20.80;1.00;;;;;;5080084;28;20382;-55
2022/07/26 01:28:11;;;;;;;7.45;3.50;;;20.80;1.00;;;;;;5079643;28;20486;-54
2022/07/26 01:30:36;;;;;;;7.60;3.20;;;20.80;1.00;;;;;;5080754;28;20756;-53
2022/07/26 01:33:02;;;;;;;8.40;3.20;;;20.90;1.00;;;;;;5081305;28;20482;-53
2022/07/26 01:35:28;;;;;;;9.10;3.13;;;20.80;1.00;;;;;;5081180;28;20413;-60
2022/07/26 01:37:54;;;;;;;7.57;3.00;;;20.90;1.00;;;;;;5081994;28;20390;-54
2022/07/26 01:40:19;;;;;;;8.40;3.20;;;20.50;1.00;;;;;;5080912;28;20447;-54
2022/07/26 01:42:45;;;;;;;10.47;2.90;;;20.60;1.00;;;;;;5079029;28;20885;-53
2022/07/26 01:45:11;;;;;;;6.73;2.70;;;20.50;1.00;;;;;;5084474;28;20470;-53
2022/07/26 01:47:38;;;;;;;9.10;2.90;;;20.60;1.00;;;;;;5077460;28;20392;-53
2022/07/26 01:50:06;;;;;;;8.23;3.00;;;20.60;37.00;;;;;;5081108;28;20381;-53
2022/07/26 01:52:33;;;;;;;7.70;3.03;;;20.50;67.60;;;;;;5081438;28;20924;-62
2022/07/26 01:54:58;;;;;;;9.00;3.10;;;20.90;38.90;;;;;;5081014;28;20400;-57
2022/07/26 01:57:24;;;;;;;6.50;2.50;;;20.60;20.70;;;;;;5082175;28;20410;-53
2022/07/26 01:59:50;;;;;;;6.22;2.65;;;20.60;1.00;;;;;;5079235;28;20478;-53
2022/07/26 02:02:15;;;;;;;6.28;2.65;;;20.50;4.60;;;;;;5081785;28;20395;-53
2022/07/26 02:05:00;;;;;;;6.13;2.63;;;20.50;3.30;;;;;;5079601;28;20402;-53
2022/07/26 02:07:31;;;;;;;6.82;2.53;;;20.60;1.00;;;;;;5079970;28;20403;-52
2022/07/26 02:09:58;;;;;;;7.40;2.20;;;20.60;19.50;;;;;;5080716;28;20720;-53
2022/07/26 02:12:23;;;;;;;5.60;2.10;;;20.60;28.90;;;;;;5079218;28;20396;-53
2022/07/26 02:14:49;;;;;;;7.13;2.30;;;20.70;9.10;;;;;;5078513;28;20386;-52
2022/07/26 02:17:15;;;;;;;7.17;2.30;;;20.70;18.30;;;;;;5079558;28;20416;-53
2022/07/26 02:19:41;;;;;;;5.40;2.08;;;20.80;12.30;;;;;;5077767;28;20380;-54
2022/07/26 02:22:06;;;;;;;6.27;2.10;;;20.80;1.00;;;;;;5078364;28;20406;-52
2022/07/26 02:24:32;;;;;;;6.97;2.25;;;20.70;33.20;;;;;;5080670;28;20393;-58
2022/07/26 02:26:59;;;;;;;6.80;2.10;;;20.60;40.30;;;;;;5079961;28;20489;-52
2022/07/26 02:29:26;;;;;;;7.30;2.50;;;20.60;27.90;;;;;;5080695;28;20394;-52
2022/07/26 02:31:52;;;;;;;6.10;2.30;;;20.50;60.00;;;;;;5080669;28;20409;-53
2022/07/26 02:34:18;;;;;;;5.53;2.03;;;20.50;92.50;;;;;;5078547;28;20740;-53
2022/07/26 02:36:44;;;;;;;7.85;2.75;;;20.50;92.10;;;;;;5079081;28;20396;-52
2022/07/26 02:39:11;;;;;;;6.10;2.28;;;20.50;99.90;;;;;;5078388;28;20835;-55
2022/07/26 02:41:37;;;;;;;6.10;2.10;;;20.40;99.90;;;;;;5080211;28;20473;-53
2022/07/26 02:44:04;;;;;;;7.63;2.50;;;20.40;99.90;;;;;;5080382;28;20395;-52
2022/07/26 02:46:30;;;;;;;5.85;2.40;;;20.40;99.90;;;;;;5081061;28;20384;-60
2022/07/26 02:48:56;;;;;;;6.20;2.40;;;20.60;99.90;;;;;;5080151;28;20406;-53
2022/07/26 02:51:22;;;;;;;6.00;2.00;;;20.40;50.40;;;;;;5079554;28;20420;-52
2022/07/26 02:53:47;;;;;;;6.10;2.00;;;20.30;29.20;;;;;;5077636;28;20395;-52
2022/07/26 02:56:13;;;;;;;5.68;1.90;;;20.30;43.70;;;;;;5081124;28;20857;-53
2022/07/26 02:58:39;;;;;;;5.17;1.73;;;20.30;23.60;;;;;;5078094;28;20923;-56
2022/07/26 03:01:04;;;;;;;5.40;2.13;;;20.30;17.70;;;;;;5079716;28;20387;-52
2022/07/26 03:03:30;;;;;;;6.87;2.00;;;20.30;43.20;;;;;;5078658;28;20929;-61
2022/07/26 03:05:56;;;;;;;5.40;2.00;;;20.00;15.70;;;;;;5075993;28;20450;-53
2022/07/26 03:08:21;;;;;;;5.40;1.90;;;20.30;3.30;;;;;;5078170;28;20395;-52
2022/07/26 03:10:47;;;;;;;5.47;2.00;;;20.30;5.10;;;;;;5076855;28;20415;-55
2022/07/26 03:13:14;;;;;;;5.10;1.90;;;20.30;1.00;;;;;;5080010;28;20451;-53
2022/07/26 03:15:39;;;;;;;5.30;2.00;;;20.30;16.90;;;;;;5077900;28;20396;-52
2022/07/26 03:18:05;;;;;;;6.18;2.05;;;20.40;19.20;;;;;;5089592;28;20390;-52
2022/07/26 03:20:31;;;;;;;5.80;2.10;;;20.30;12.00;;;;;;5088433;28;20866;-60
2022/07/26 03:22:56;;;;;;;6.53;2.30;;;20.20;2.50;;;;;;5079062;28;20399;-52
2022/07/26 03:25:22;;;;;;;6.03;1.95;;;20.10;42.50;;;;;;5081405;28;20398;-53
2022/07/26 03:27:47;;;;;;;6.00;2.08;;;20.00;10.10;;;;;;5087251;28;20503;-53
2022/07/26 03:30:13;;;;;;;6.40;2.20;;;20.00;56.70;;;;;;5089367;28;20428;-54
2022/07/26 03:32:40;;;;;;;5.60;2.00;;;20.00;38.80;;;;;;5079637;28;20402;-52
2022/07/26 03:35:06;;;;;;;5.60;2.20;;;19.90;58.10;;;;;;5071083;28;20991;-55
2022/07/26 03:37:32;;;;;;;6.30;2.37;;;19.80;27.10;;;;;;5083853;28;20481;-60
2022/07/26 03:39:58;;;;;;;5.32;1.90;;;19.80;33.40;;;;;;5077053;28;20474;-53
2022/07/26 03:42:23;;;;;;;6.57;2.20;;;19.70;52.90;;;;;;5079860;28;20386;-53
2022/07/26 03:44:49;;;;;;;6.53;2.33;;;19.70;55.50;;;;;;5078531;28;21061;-53
2022/07/26 03:47:15;;;;;;;6.33;2.20;;;19.70;47.10;;;;;;5086475;28;20392;-57
2022/07/26 03:49:40;;;;;;;6.60;1.95;;;19.70;69.60;;;;;;5088132;28;20398;-52
2022/07/26 03:52:06;;;;;;;6.97;2.20;;;19.70;31.00;;;;;;5088406;28;20414;-52
2022/07/26 03:54:32;;;;;;;6.93;2.30;;;19.50;37.70;;;;;;5088464;28;20417;-60
2022/07/26 03:56:57;;;;;;;7.80;2.20;;;19.70;44.30;;;;;;5086452;28;20706;-52
2022/07/26 03:59:24;;;;;;;7.20;2.70;;;19.70;43.30;;;;;;5072936;28;20872;-52
2022/07/26 04:01:50;;;;;;;5.90;2.30;;;19.80;48.30;;;;;;5087279;28;20409;-53
2022/07/26 04:04:17;;;;;;;6.20;2.45;;;19.80;67.60;;;;;;5077353;28;20410;-52
2022/07/26 04:06:44;;;;;;;6.70;2.30;;;19.60;81.20;;;;;;5091336;28;20386;-52
2022/07/26 04:09:10;;;;;;;7.22;2.42;;;19.60;93.20;;;;;;5075767;28;20441;-52
2022/07/26 04:11:35;;;;;;;6.43;2.20;;;19.60;73.20;;;;;;5071864;28;20415;-54
2022/07/26 04:14:03;;;;;;;6.18;2.40;;;19.60;51.50;;;;;;5076838;28;20482;-53
2022/07/26 04:16:28;;;;;;;7.75;2.42;;;19.50;67.70;;;;;;5089066;28;20503;-52
2022/07/26 04:18:54;;;;;;;5.70;2.40;;;19.50;99.90;;;;;;5081043;28;20473;-52
2022/07/26 04:21:20;;;;;;;7.07;2.60;;;19.60;93.50;;;;;;5090037;28;20515;-52
2022/07/26 04:23:46;;;;;;;6.50;2.40;;;19.60;71.20;;;;;;5078248;28;20391;-52
2022/07/26 04:26:13;;;;;;;6.60;2.40;;;19.60;27.20;;;;;;5086224;28;20390;-52
2022/07/26 04:28:39;;;;;;;6.60;2.40;;;19.60;99.90;;;;;;5088178;28;20417;-52
2022/07/26 04:31:05;;;;;;;6.50;2.60;;;19.40;99.90;;;;;;5081094;28;20444;-52
2022/07/26 04:33:31;;;;;;;6.13;2.50;;;19.40;99.90;;;;;;5092484;28;20445;-53
2022/07/26 04:35:58;;;;;;;7.67;3.27;;;19.30;99.90;;;;;;5091192;28;20774;-52
2022/07/26 04:38:24;;;;;;;6.78;2.70;;;19.30;99.90;;;;;;5089282;28;20398;-52
2022/07/26 04:40:50;;;;;;;8.33;2.67;;;19.30;99.90;;;;;;5084589;28;20400;-52
2022/07/26 04:43:16;;;;;;;6.80;2.40;;;19.30;99.90;;;;;;5083914;28;20430;-52
2022/07/26 04:45:44;;;;;;;7.43;2.75;;;19.30;99.30;;;;;;5081419;28;20401;-55
2022/07/26 04:48:10;;;;;;;6.10;2.50;;;19.40;99.90;;;;;;5082800;28;20401;-53
2022/07/26 04:50:35;;;;;;;5.90;2.50;;;19.50;75.70;;;;;;5083109;28;20723;-57
2022/07/26 04:53:01;;;;;;;5.77;2.50;;;19.60;39.00;;;;;;5083088;28;20407;-53
2022/07/26 04:55:27;;;;;;;6.10;2.10;;;19.60;27.30;;;;;;5082441;28;20387;-55
2022/07/26 04:57:53;;;;;;;6.80;2.63;;;19.70;13.80;;;;;;5078726;28;20410;-54
2022/07/26 05:00:23;;;;;;;7.10;2.63;;;19.80;1.00;;;;;;5082534;28;20388;-52
2022/07/26 05:02:51;;;;;;;7.97;2.90;;;20.00;1.00;;;;;;5080540;28;20383;-53
2022/07/26 05:05:17;;;;;;;6.10;2.30;;;20.00;1.00;;;;;;5082866;28;20389;-52
2022/07/26 05:07:45;;;;;;;6.27;2.10;;;20.10;1.00;;;;;;5076694;28;20395;-54
2022/07/26 05:10:12;;;;;;;8.10;2.60;;;20.00;1.00;;;;;;5074924;28;20384;-51
2022/07/26 05:12:38;;;;;;;6.50;2.60;;;20.10;1.00;;;;;;5080167;28;20479;-52
2022/07/26 05:15:05;;;;;;;7.00;2.80;;;20.10;1.00;;;;;;5076548;28;20593;-52
2022/07/26 05:17:31;;;;;;;7.43;3.00;;;20.20;1.00;;;;;;5071828;28;20762;-52
2022/07/26 05:19:57;;;;;;;6.30;2.70;;;19.20;1.00;;;;;;5082534;28;20417;-52
2022/07/26 05:22:23;;;;;;;7.90;2.80;;;20.30;1.00;;;;;;5088576;28;20397;-52
2022/07/26 05:24:48;;;;;;;6.63;2.90;;;20.30;1.00;;;;;;5089709;28;20473;-53
2022/07/26 05:27:14;;;;;;;7.30;2.60;;;20.40;1.00;;;;;;5079650;28;20410;-52
2022/07/26 05:29:39;;;;;;;6.37;2.67;;;20.60;1.00;;;;;;5087707;28;20917;-56
2022/07/26 05:32:05;;;;;;;11.05;3.10;;;20.70;1.00;;;;;;5086741;28;20555;-52
2022/07/26 05:34:31;;;;;;;9.00;2.90;;;20.70;1.00;;;;;;5088772;28;20382;-53
2022/07/26 05:36:57;;;;;;;7.00;2.30;;;21.00;1.00;;;;;;5089139;28;20397;-52
2022/07/26 05:39:22;;;;;;;7.67;2.90;;;21.80;99.90;;;;;;5089921;28;20386;-53
2022/07/26 05:41:48;;;;;;;6.50;2.60;;;22.00;99.90;;;;;;5069279;28;20891;-53
2022/07/26 05:44:14;;;;;;;6.00;2.58;;;22.10;99.90;;;;;;5070510;28;20940;-52
2022/07/26 05:46:39;;;;;;;7.53;2.60;;;22.10;99.90;;;;;;5069745;28;20383;-52
2022/07/26 05:49:06;;;;;;;8.07;2.88;;;22.80;99.90;;;;;;5070579;28;20380;-52
2022/07/26 05:51:32;;;;;;;6.50;2.72;;;23.50;1.00;;;;;;5070814;28;20419;-53
2022/07/26 05:53:58;;;;;;;6.67;2.80;;;24.30;1.00;;;;;;5070380;28;20463;-53
2022/07/26 05:56:24;;;;;;;8.10;2.60;;;25.40;1.00;;;;;;5070507;28;20478;-53
2022/07/26 05:58:49;;;;;;;7.78;2.42;;;26.30;99.90;;;;;;5070100;28;20383;-53
2022/07/26 06:01:15;;;;;;;6.50;2.30;;;26.40;96.90;;;;;;5070640;28;20398;-53
2022/07/26 06:03:40;;;;;;;8.38;2.60;;;26.90;48.90;;;;;;5072248;28;20426;-53
2022/07/26 06:06:06;;;;;;;6.22;2.20;;;26.60;18.10;;;;;;5081824;28;20475;-53
2022/07/26 06:08:32;;;;;;;10.88;2.40;;;26.70;4.20;;;;;;5085974;28;20382;-52
2022/07/26 06:10:58;;;;;;;10.57;2.60;;;27.30;1.00;;;;;;5071671;28;20485;-53
2022/07/26 06:13:24;;;;;;;9.05;2.90;;;27.50;1.00;;;;;;5072709;28;20423;-53
2022/07/26 06:15:50;;;;;;;7.20;1.90;;;27.70;1.00;;;;;;5089316;28;20481;-53
2022/07/26 06:18:16;;;;;;;6.88;2.40;;;27.70;1.00;;;;;;5090400;28;20381;-53
2022/07/26 06:20:44;;;;;;;7.50;2.47;;;27.10;1.00;;;;;;5089553;28;20882;-53
2022/07/26 06:23:10;;;;;;;6.40;2.20;;;27.10;1.00;;;;;;5077884;28;20846;-53
2022/07/26 06:25:36;;;;;;;6.20;2.30;;;27.10;1.00;;;;;;5069681;28;20896;-58
2022/07/26 06:28:03;;;;;;;6.95;2.10;;;27.30;1.00;;;;;;5069938;28;20410;-53
2022/07/26 06:30:29;;;;;;;6.00;2.20;;;27.70;1.00;;;;;;5069987;28;21032;-53
2022/07/26 06:32:55;;;;;;;6.30;2.00;;;28.00;1.00;;;;;;5069102;28;20403;-54
2022/07/26 06:35:22;;;;;;;6.65;1.60;;;28.60;1.00;;;;;;5069937;28;20470;-53
2022/07/26 06:37:49;;;;;;;7.25;2.30;;;28.30;1.00;;;;;;5069262;28;20380;-53
2022/07/26 06:40:15;;;;;;;7.25;1.73;;;29.00;1.00;;;;;;5070281;28;20423;-53
2022/07/26 06:42:40;;;;;;;7.30;2.60;;;29.30;1.00;;;;;;5069625;28;20375;-53
2022/07/26 06:45:06;;;;;;;5.70;1.60;;;29.70;1.00;;;;;;5070006;28;20391;-53
2022/07/26 06:47:34;;;;;;;6.70;1.55;;;29.60;1.00;;;;;;5069848;28;20375;-53
2022/07/26 06:50:00;;;;;;;6.10;1.90;;;29.40;1.00;;;;;;5069313;28;20798;-53
2022/07/26 06:52:25;;;;;;;8.98;1.75;;;29.10;1.00;;;;;;5069851;28;20462;-53
2022/07/26 06:54:51;;;;;;;8.40;1.42;;;29.40;1.00;;;;;;5068623;28;20904;-52
2022/07/26 06:57:17;;;;;;;7.70;1.83;;;30.00;1.00;;;;;;5069861;28;20902;-53
2022/07/26 06:59:42;;;;;;;7.23;1.60;;;29.70;1.00;;;;;;5069117;28;20414;-52
2022/07/26 07:02:08;;;;;;;5.80;1.53;;;29.90;99.90;;;;;;5069539;28;20383;-53
2022/07/26 07:04:34;;;;;;;6.70;1.63;;;30.20;99.90;;;;;;5069988;28;20422;-53
2022/07/26 07:07:04;;;;;;;7.30;1.70;;;31.30;99.90;;;;;;5068885;28;20436;-53
2022/07/26 07:09:31;;;;;;;7.10;1.60;;;31.10;99.90;;;;;;5069707;28;20474;-53
2022/07/26 07:11:57;;;;;;;5.70;1.20;;;31.10;99.90;;;;;;5068788;28;20494;-52
2022/07/26 07:14:22;;;;;;;5.40;1.50;;;30.60;99.90;;;;;;5082241;28;20470;-53
2022/07/26 07:16:48;;;;;;;6.97;1.50;;;30.10;99.90;;;;;;5088951;28;20370;-53
2022/07/26 07:19:13;;;;;;;7.77;1.60;;;30.00;99.90;;;;;;5089975;28;20397;-53
2022/07/26 07:21:39;;;;;;;6.10;1.80;;;30.00;99.90;;;;;;5088804;28;20374;-54
2022/07/26 07:24:05;;;;;;;6.55;1.67;;;30.40;99.90;;;;;;5089480;28;20418;-53
2022/07/26 07:26:31;;;;;;;5.85;1.60;;;30.40;99.90;;;;;;5091018;28;20971;-53
2022/07/26 07:28:57;;;;;;;5.13;1.30;;;30.60;99.90;;;;;;5092985;28;20397;-53
2022/07/26 07:31:24;;;;;;;5.50;1.37;;;30.80;99.90;;;;;;5093724;28;20417;-53
2022/07/26 07:33:49;;;;;;;6.40;1.55;;;31.00;99.90;;;;;;5092618;28;20731;-53
2022/07/26 07:36:15;;;;;;;8.32;1.30;;;31.00;99.90;;;;;;5094181;28;20370;-53
2022/07/26 07:38:43;;;;;;;6.50;1.40;;;31.50;99.90;;;;;;5093081;28;20433;-53
2022/07/26 07:41:08;;;;;;;6.20;1.10;;;31.80;99.90;;;;;;5093907;28;20397;-53
2022/07/26 07:43:34;;;;;;;5.70;1.10;;;30.80;99.90;;;;;;5094073;28;20863;-53
2022/07/26 07:45:59;;;;;;;7.00;1.40;;;30.00;99.90;;;;;;5092709;28;20427;-53
2022/07/26 07:48:25;;;;;;;6.17;1.37;;;29.80;99.90;;;;;;5093779;28;20863;-53
2022/07/26 07:50:50;;;;;;;5.60;1.60;;;29.50;99.90;;;;;;5092740;28;20496;-55
2022/07/26 07:53:16;;;;;;;5.60;1.30;;;29.50;99.90;;;;;;5093194;28;20378;-53
2022/07/26 07:55:42;;;;;;;5.17;1.10;;;30.00;99.90;;;;;;5092825;28;20835;-53
2022/07/26 07:58:07;;;;;;;7.57;1.20;;;30.10;99.90;;;;;;5092994;28;20432;-53
2022/07/26 08:00:33;;;;;;;6.40;1.30;;;30.30;99.90;;;;;;5093626;28;20448;-54
2022/07/26 08:02:58;;;;;;;5.53;1.10;;;31.00;99.90;;;;;;5092591;28;20385;-55
2022/07/26 08:05:24;;;;;;;6.50;1.50;;;30.90;99.90;;;;;;5093307;28;20373;-54
2022/07/26 08:07:50;;;;;;;5.20;1.10;;;30.60;99.90;;;;;;5092526;28;20410;-53
2022/07/26 08:10:15;;;;;;;5.53;1.07;;;30.50;99.90;;;;;;5093249;28;20371;-53
2022/07/26 08:12:42;;;;;;;8.00;1.20;;;30.90;99.90;;;;;;5092434;28;20389;-53
2022/07/26 08:15:08;;;;;;;5.80;1.60;;;31.30;99.90;;;;;;5074293;28;20453;-53
2022/07/26 08:17:34;;;;;;;4.80;0.90;;;31.70;99.90;;;;;;5072805;28;20392;-53
2022/07/26 08:20:00;;;;;;;5.55;1.25;;;31.90;99.90;;;;;;5072104;28;20384;-54
2022/07/26 08:22:26;;;;;;;5.43;1.40;;;31.70;99.90;;;;;;5072694;28;20387;-53
2022/07/26 08:24:52;;;;;;;5.70;0.80;;;31.60;99.90;;;;;;5071892;28;20398;-53
2022/07/26 08:27:18;;;;;;;7.67;1.20;;;31.30;99.90;;;;;;5072509;28;20714;-53
2022/07/26 08:29:43;;;;;;;5.70;1.30;;;32.40;99.90;;;;;;5072104;28;20396;-53
2022/07/26 08:32:09;;;;;;;5.57;0.80;;;32.30;99.90;;;;;;5072489;28;20462;-54
2022/07/26 08:34:35;;;;;;;6.57;1.37;;;31.40;99.90;;;;;;5072411;28;20380;-53
2022/07/26 08:37:01;;;;;;;5.90;1.10;;;30.70;99.90;;;;;;5071452;28;20920;-53
2022/07/26 08:39:26;;;;;;;5.40;1.30;;;31.30;99.90;;;;;;5070782;28;20396;-54
2022/07/26 08:41:52;;;;;;;5.20;0.90;;;31.00;99.90;;;;;;5071507;28;20387;-54
2022/07/26 08:44:18;;;;;;;5.30;1.20;;;31.20;99.90;;;;;;5072388;28;20415;-53
2022/07/26 08:46:44;;;;;;;5.85;1.00;;;30.50;99.90;;;;;;5071295;28;20388;-53
2022/07/26 08:49:10;;;;;;;6.07;1.20;;;31.80;99.90;;;;;;5072545;28;20376;-54
2022/07/26 08:51:43;;;;;;;4.97;1.15;;;32.10;99.90;;;;;;5072045;28;20419;-59
2022/07/26 08:54:11;;;;;;;5.90;1.35;;;31.70;99.90;;;;;;5072013;28;20376;-55
2022/07/26 08:56:41;;;;;;;5.50;1.00;;;32.00;99.90;;;;;;5071781;28;20449;-60
2022/07/26 08:59:14;;;;;;;5.50;1.27;;;33.50;99.90;;;;;;5071691;28;20884;-53
2022/07/26 09:01:49;;;;;;;5.53;1.00;;;34.30;99.90;;;;;;5071247;28;20943;-60
2022/07/26 09:04:27;;;;;;;6.17;2.47;;;34.10;99.90;;;;;;5072044;28;20378;-53
2022/07/26 09:06:55;;;;;;;5.40;2.25;;;34.40;99.90;;;;;;5070952;28;20492;-57
2022/07/26 09:09:21;;;;;;;6.10;2.10;;;33.60;99.90;;;;;;5071360;28;20376;-54
2022/07/26 09:11:47;;;;;;;6.57;2.03;;;33.70;99.90;;;;;;5071209;28;20900;-53
2022/07/26 09:14:12;;;;;;;7.40;2.30;;;33.80;99.90;;;;;;5083156;28;20465;-53
2022/07/26 09:16:38;;;;;;;5.35;1.92;;;33.40;99.90;;;;;;5090851;28;20457;-54
2022/07/26 09:19:21;;;;;;;5.28;1.80;;;31.90;99.90;;;;;;5092085;28;20381;-52
2022/07/26 09:21:46;;;;;;;5.75;1.90;;;31.30;99.90;;;;;;5091531;28;20982;-53
2022/07/26 09:24:28;;;;;;;5.57;1.70;;;31.00;99.90;;;;;;5091665;28;20375;-53
2022/07/26 09:26:58;;;;;;;4.80;1.50;;;32.30;99.90;;;;;;5091186;28;20386;-53
2022/07/26 09:29:23;;;;;;;5.60;1.58;;;32.10;99.90;;;;;;5092080;28;20386;-55
2022/07/26 09:31:49;;;;;;;6.68;1.83;;;30.80;99.90;;;;;;5090931;28;20417;-53
2022/07/26 09:34:24;;;;;;;5.30;2.13;;;31.00;99.90;;;;;;5091211;28;20443;-53
2022/07/26 09:36:51;;;;;;;4.90;1.65;;;30.90;99.90;;;;;;5091216;28;20466;-53
2022/07/26 09:39:17;;;;;;;5.72;2.05;;;30.60;99.90;;;;;;5091609;28;20381;-55
2022/07/26 09:41:43;;;;;;;7.03;1.50;;;30.90;99.90;;;;;;5091085;28;20723;-53
2022/07/26 09:44:29;;;;;;;5.80;2.30;;;31.10;99.90;;;;;;5091446;28;20362;-53
2022/07/26 09:46:57;;;;;;;5.95;1.85;;;32.20;99.90;;;;;;5090022;28;20407;-53
2022/07/26 09:49:24;;;;;;;5.82;1.70;;;33.10;99.90;;;;;;5090413;28;20389;-54
2022/07/26 09:51:52;;;;;;;5.70;1.58;;;34.30;99.90;;;;;;5090558;28;20406;-53
2022/07/26 09:54:38;;;;;;;6.00;2.15;;;33.50;99.90;;;;;;5090909;28;20385;-53
2022/07/26 09:57:03;;;;;;;6.50;1.60;;;32.00;99.90;;;;;;5090307;28;20417;-53
2022/07/26 09:59:29;;;;;;;5.50;2.10;;;30.50;99.90;;;;;;5091185;28;20870;-53
2022/07/26 10:01:57;;;;;;;8.52;1.80;;;30.50;99.90;;;;;;5090171;28;20856;-53
2022/07/26 10:04:24;;;;;;;5.63;1.40;;;30.10;99.90;;;;;;5090622;28;20384;-54
2022/07/26 10:06:50;;;;;;;5.40;1.58;;;30.60;99.90;;;;;;5090073;28;20855;-53
2022/07/26 10:09:17;;;;;;;5.20;1.40;;;31.30;99.90;;;;;;5090864;28;20382;-53
2022/07/26 10:11:52;;;;;;;6.40;1.60;;;31.50;99.90;;;;;;5089814;28;20456;-53
2022/07/26 10:14:32;;;;;;;4.97;1.50;;;30.90;99.90;;;;;;5078594;28;20391;-53
2022/07/26 10:17:27;;;;;;;5.65;1.80;;;31.10;99.90;;;;;;5069554;28;20426;-53
2022/07/26 10:19:54;;;;;;;6.10;1.40;;;32.20;99.90;;;;;;5069245;28;20717;-53
2022/07/26 10:22:30;;;;;;;6.00;1.90;;;33.10;99.90;;;;;;5070295;28;20450;-54
2022/07/26 10:25:18;;;;;;;5.55;1.63;;;32.90;99.90;;;;;;5069599;28;20387;-54
2022/07/26 10:27:43;;;;;;;6.30;1.80;;;31.90;99.90;;;;;;5068881;28;20467;-60
2022/07/26 10:30:18;;;;;;;5.83;2.30;;;30.40;99.90;;;;;;5070267;28;20469;-53
2022/07/26 10:32:50;;;;;;;5.65;1.60;;;30.30;99.90;;;;;;5069492;28;20392;-53
2022/07/26 10:35:42;;;;;;;5.30;1.90;;;29.80;99.90;;;;;;5070161;28;20387;-52
2022/07/26 10:38:09;;;;;;;5.20;2.00;;;29.60;99.90;;;;;;5070077;28;20451;-53
2022/07/26 10:40:36;;;;;;;5.13;2.00;;;29.40;99.90;;;;;;5069679;28;20437;-54
2022/07/26 10:43:13;;;;;;;5.35;1.63;;;29.40;99.90;;;;;;5069387;28;20428;-53
2022/07/26 10:45:40;;;;;;;5.70;1.80;;;29.10;99.90;;;;;;5069573;28;20741;-59
2022/07/26 10:48:13;;;;;;;5.00;1.80;;;28.80;99.90;;;;;;5069399;28;20376;-53
2022/07/26 10:50:43;;;;;;;5.10;1.80;;;28.60;99.90;;;;;;5069790;28;20489;-59
2022/07/26 10:53:15;;;;;;;5.30;1.97;;;28.50;99.90;;;;;;5069783;28;20382;-53
2022/07/26 10:55:46;;;;;;;5.10;1.60;;;28.90;99.90;;;;;;5067905;28;20402;-59
2022/07/26 10:58:12;;;;;;;5.88;1.92;;;28.80;99.90;;;;;;5069859;28;20419;-53
2022/07/26 11:00:38;;;;;;;6.80;1.97;;;28.90;99.90;;;;;;5069700;28;20380;-53
2022/07/26 11:03:03;;;;;;;6.30;2.00;;;28.60;99.90;;;;;;5068800;28;20899;-53
2022/07/26 11:05:31;;;;;;;6.40;1.98;;;28.30;99.90;;;;;;5069910;28;20380;-53
2022/07/26 11:08:07;;;;;;;7.63;1.80;;;28.50;99.90;;;;;;5069188;28;20378;-58
2022/07/26 11:10:45;;;;;;;5.43;1.92;;;29.10;99.90;;;;;;5069633;28;20521;-53
2022/07/26 11:13:19;;;;;;;5.70;1.48;;;28.80;99.90;;;;;;5070495;28;20895;-53
2022/07/26 11:15:50;;;;;;;5.18;1.70;;;28.60;99.90;;;;;;5072415;28;20384;-53
2022/07/26 11:18:22;;;;;;;4.63;1.35;;;29.20;99.90;;;;;;5089317;28;20394;-55
2022/07/26 11:20:52;;;;;;;5.13;1.35;;;28.50;99.90;;;;;;5086483;28;20514;-58
2022/07/26 11:23:31;;;;;;;5.10;1.70;;;28.00;99.90;;;;;;5086989;28;20389;-53
2022/07/26 11:26:00;;;;;;;6.00;2.30;;;28.00;99.90;;;;;;5079770;28;20439;-53
2022/07/26 11:28:26;;;;;;;9.00;2.30;;;27.70;99.90;;;;;;5079374;28;20442;-54
2022/07/26 11:30:59;;;;;;;6.93;2.47;;;28.10;99.90;;;;;;5077449;28;20928;-53
2022/07/26 11:33:40;;;;;;;6.20;2.08;;;28.40;99.90;;;;;;5080653;28;20811;-53
2022/07/26 11:36:07;;;;;;;7.90;2.15;;;28.50;99.90;;;;;;5089967;28;20407;-53
2022/07/26 11:39:03;;;;;;;6.57;1.70;;;28.70;99.90;;;;;;5074170;28;20836;-54
2022/07/26 11:41:30;;;;;;;5.13;1.80;;;28.70;99.90;;;;;;5065919;28;20409;-53
2022/07/26 11:43:56;;;;;;;6.80;2.20;;;28.90;99.90;;;;;;5079553;28;20792;-53
2022/07/26 11:46:30;;;;;;;5.80;2.10;;;28.90;99.90;;;;;;5078567;28;20949;-57
2022/07/26 11:48:55;;;;;;;4.90;1.77;;;28.00;99.90;;;;;;5078548;28;20902;-53
2022/07/26 11:51:23;;;;;;;6.10;2.30;;;27.90;99.90;;;;;;5081318;28;20527;-53
2022/07/26 11:53:50;;;;;;;6.70;2.60;;;28.10;99.90;;;;;;5079120;28;20745;-54
2022/07/26 11:56:19;;;;;;;5.47;2.03;;;28.20;99.90;;;;;;5077609;28;20389;-53
2022/07/26 11:58:48;;;;;;;6.55;1.80;;;28.20;99.90;;;;;;5082480;28;20453;-53
2022/07/26 12:01:16;;;;;;;12.73;2.20;;;28.00;99.90;;;;;;5077869;28;20775;-53
2022/07/26 12:03:45;;;;;;;6.35;1.88;;;27.90;99.90;;;;;;5078261;28;20859;-60
2022/07/26 12:06:19;;;;;;;7.22;2.10;;;28.50;99.90;;;;;;5084881;28;20468;-53
2022/07/26 12:08:53;;;;;;;5.50;1.85;;;29.00;99.90;;;;;;5083352;28;20459;-52
2022/07/26 12:11:21;;;;;;;5.55;2.00;;;29.50;99.90;;;;;;5078771;28;20496;-53
2022/07/26 12:14:07;;;;;;;5.32;1.90;;;29.70;99.90;;;;;;5080916;28;20493;-55
2022/07/26 12:16:41;;;;;;;4.90;1.43;;;28.80;99.90;;;;;;5087784;28;20885;-52
2022/07/26 12:19:22;;;;;;;6.03;1.73;;;28.30;99.90;;;;;;5076812;28;20634;-52
2022/07/26 12:21:48;;;;;;;5.20;1.50;;;28.30;99.90;;;;;;5087500;28;20402;-53
2022/07/26 12:24:40;;;;;;;5.07;1.80;;;28.40;99.90;;;;;;5081754;28;20810;-53
2022/07/26 12:27:20;;;;;;;5.53;1.85;;;28.90;99.90;;;;;;5083117;28;20487;-52
2022/07/26 12:29:51;;;;;;;8.13;1.77;;;28.70;99.90;;;;;;5082642;28;20382;-53
2022/07/26 12:32:21;;;;;;;5.20;2.00;;;28.50;99.90;;;;;;5081623;28;20505;-53
2022/07/26 12:35:05;;;;;;;6.30;2.30;;;28.80;99.90;;;;;;5082417;28;20876;-52
2022/07/26 12:37:33;;;;;;;6.40;1.93;;;28.50;99.90;;;;;;5083105;28;20402;-52
2022/07/26 12:40:00;;;;;;;6.05;2.08;;;28.20;99.90;;;;;;5082374;28;20993;-53
2022/07/26 12:42:29;;;;;;;5.80;2.00;;;28.60;99.90;;;;;;5081402;28;20388;-52
2022/07/26 12:44:55;;;;;;;5.70;2.30;;;28.70;99.90;;;;;;5078297;28;20392;-52
2022/07/26 12:47:20;;;;;;;5.70;1.90;;;28.90;99.90;;;;;;5081179;28;20399;-53
2022/07/26 12:49:47;;;;;;;7.70;1.43;;;28.90;99.90;;;;;;5081730;28;20405;-52
2022/07/26 12:52:14;;;;;;;5.00;1.90;;;29.20;99.90;;;;;;5083356;28;20412;-52